• Join FlightAware (Why Join?)
  • Login
  • US Flag 
12:36PM EDT


 

Airport Tracker/Info


-or-


 

Live Flight TrackerFlight Track Log ✈ SKW5631 ✈ 05-May-2013 ✈ KDFW - KSFO

Flight Track Log - Related Links

Times and Time Zones

All times are in EDT time to prevent confusion due to time zone crossing. See the SKW5631 flight status page for this flight to view local times or setup timezone preferences in your user account.

Time Position Orientation Groundspeed Altitude Reporting Facility
EDT Latitude Longitude Course Direction KTS MPH feet Rate Location/Type
04:05PM 32.9000 -97.0500 294° West 158 182 1,300  Level Dallas / Fort Worth TRACON
04:06PM 32.9667 -97.0500 360° North 213 245 4,100 2,520 Climbing Dallas / Fort Worth TRACON
04:07PM 33.0333 -97.0667 348° North 251 289 6,900 2,220 Climbing Dallas / Fort Worth TRACON
04:08PM 32.8474 -97.4218 293° West  Level FlightAware Approximate
04:09PM 32.8916 -97.5436 293° West  Level FlightAware Approximate
04:09PM 33.0378 -97.2003 272° West 270 311 10,100  Level Fort Worth Center
04:10PM 32.9403 -97.6628 294° West  Level FlightAware Approximate
04:10PM 33.0294 -97.2994 264° West 277 319 10,000  Level Fort Worth Center
04:11PM 33.0192 -97.3764 261° West 282 325 10,900 1,740 Climbing Fort Worth Center
04:12PM 33.0044 -97.5025 262° West 315 362 13,500 2,340 Climbing Fort Worth Center
04:13PM 32.9939 -97.6117 263° West 328 377 15,600 1,800 Climbing Fort Worth Center
04:14PM 32.9811 -97.7106 261° West 342 394 17,100 1,740 Climbing Fort Worth Center
04:15PM 32.9956 -97.8369 278° West 347 399 19,100 1,860 Climbing Fort Worth Center
04:16PM 33.0117 -97.9386 281° West 347 399 20,900 1,800 Climbing Fort Worth Center
04:17PM 33.0319 -98.0628 281° West 357 411 22,700 1,020 Climbing Fort Worth Center
04:18PM 33.0481 -98.1694 280° West 357 411 23,000 840 Climbing Fort Worth Center
04:19PM 33.0703 -98.3083 281° West 377 434 24,400 1,560 Climbing Fort Worth Center
04:20PM 33.0861 -98.4175 280° West 384 442 26,200 1,380 Climbing Fort Worth Center
04:21PM 33.1036 -98.5517 279° West 379 436 27,200 960 Climbing Fort Worth Center
04:22PM 33.1214 -98.6611 281° West 379 436 28,200 900 Climbing Fort Worth Center
04:23PM 33.1411 -98.7878 281° West 384 442 29,000 720 Climbing Fort Worth Center
04:24PM 33.1625 -98.9197 281° West 396 456 29,700 660 Climbing Fort Worth Center
04:25PM 33.1817 -99.0517 280° West 396 456 30,400 660 Climbing Fort Worth Center
04:26PM 33.2006 -99.1886 279° West 406 467 31,100 660 Climbing Fort Worth Center
04:27PM 33.2217 -99.3231 281° West 411 473 31,800 840 Climbing Fort Worth Center
04:28PM 33.2383 -99.4575 278° West 411 473 32,800 960 Climbing Fort Worth Center
04:29PM 33.2758 -99.5825 290° West 405 466 33,800 960 Climbing Fort Worth Center
04:30PM 33.3408 -99.6861 307° West 388 447 34,800 960 Climbing Fort Worth Center
04:31PM 33.4100 -99.7875 309° West 393 452 35,800 600 Climbing Fort Worth Center
04:32PM 33.4769 -99.8864 309° West 388 447 36,000 60 Climbing Fort Worth Center
04:34PM 33.6125 -100.0872 309° West 388 447 36,000  Level Fort Worth Center
04:35PM 33.6792 -100.1892 308° West 388 447 36,000  Level Fort Worth Center
04:36PM 33.7478 -100.2911 309° West 388 447 36,000  Level Fort Worth Center
04:37PM 33.8058 -100.3956 304° West 388 447 36,000  Level Fort Worth Center
04:38PM 33.8575 -100.5100 299° West 388 447 36,000  Level Fort Worth Center
04:39PM 33.9089 -100.6219 299° West 383 441 36,000  Level Fort Worth Center
04:40PM 33.9581 -100.7339 298° West 383 441 36,000  Level Fort Worth Center
04:42PM 34.0664 -100.9711 299° West 383 441 36,000  Level Fort Worth Center
04:43PM 34.1131 -101.0883 296° West 383 441 36,000  Level Fort Worth Center
04:44PM 34.1619 -101.1933 299° West 389 448 36,000  Level Fort Worth Center
04:45PM 34.2167 -101.3214 297° West 389 448 36,000  Level Fort Worth Center
04:47PM 34.3389 -101.5986 298° West 393 452 36,000  Level Albuquerque Center
04:48PM 34.3900 -101.7147 298° West 392 451 36,000  Level Albuquerque Center
04:49PM 34.4406 -101.8333 297° West 394 453 36,000  Level Albuquerque Center
04:50PM 34.4922 -101.9533 298° West 398 458 36,000  Level Albuquerque Center
04:51PM 34.5422 -102.0706 297° West 393 452 36,000  Level Albuquerque Center
04:52PM 34.5931 -102.1883 298° West 392 451 36,000  Level Albuquerque Center
04:53PM 34.6433 -102.3075 297° West 395 455 36,000  Level Albuquerque Center
04:54PM 34.7039 -102.4503 297° West 394 453 36,000  Level Albuquerque Center
04:55PM 34.7547 -102.5692 298° West 396 456 36,000  Level Albuquerque Center
04:56PM 34.7983 -102.6772 296° West 396 456 36,000  Level Albuquerque Center
04:57PM 34.8583 -102.8169 298° West 395 455 36,000  Level Albuquerque Center
04:58PM 34.9092 -102.9367 297° West 395 455 36,000  Level Albuquerque Center
04:59PM 34.9583 -103.0581 296° West 396 456 36,000  Level Albuquerque Center
05:01PM 35.0150 -103.1931 297° West  Level FlightAware Approximate
05:02PM 35.1097 -103.4214 291° West 398 458 36,000  Level Albuquerque Center
05:03PM 35.1606 -103.5431 297° West 399 459 36,000  Level Albuquerque Center
05:05PM 35.2122 -103.6878 294° West 398 458 36,000  Level Albuquerque Center
05:06PM 35.2514 -103.8147 291° West 397 457 36,000  Level Albuquerque Center
05:07PM 35.2872 -103.9275 291° West 397 457 36,000  Level Albuquerque Center
05:08PM 35.3191 -104.0399 291° West  Level FlightAware Approximate
05:08PM 35.3350 -104.0792 291° West 398 458 36,000  Level Albuquerque Center
05:10PM 35.4158 -104.3428 291° West 401 461 36,000  Level Albuquerque Center
05:11PM 35.4550 -104.4706 291° West 400 460 36,000  Level Albuquerque Center
05:12PM 35.4950 -104.6003 291° West 402 463 36,000  Level Albuquerque Center
05:13PM 35.5344 -104.7303 290° West 404 465 36,000  Level Albuquerque Center
05:14PM 35.5744 -104.8597 291° West 403 464 36,000  Level Albuquerque Center
05:15PM 35.6133 -104.9911 290° West 405 466 36,000  Level Albuquerque Center
05:16PM 35.6525 -105.1200 291° West 401 461 36,000  Level Albuquerque Center
05:17PM 35.7081 -105.2683 295° West 404 465 36,000  Level Albuquerque Center
05:18PM 35.7575 -105.3953 296° West 408 470 36,000  Level Albuquerque Center
05:19PM 35.8056 -105.5203 295° West 403 464 36,000  Level Albuquerque Center
05:20PM 35.8550 -105.6464 296° West 407 468 36,000  Level Albuquerque Center
05:21PM 35.9008 -105.7714 294° West 405 466 36,000  Level Albuquerque Center
05:22PM 35.9497 -105.9011 295° West 403 464 36,000  Level Albuquerque Center
05:24PM 36.0431 -106.1472 295° West 404 465 36,000  Level Albuquerque Center
05:25PM 36.1000 -106.3006 295° West 409 471 36,000 240 Level Albuquerque Center
05:27PM 36.1942 -106.5553 295° West 406 467 36,900 480 Climbing Albuquerque Center
05:28PM 36.2458 -106.6958 295° West 403 464 37,600 480 Climbing Albuquerque Center
05:29PM 36.2906 -106.8158 295° West 401 461 38,000 180 Climbing Albuquerque Center
05:30PM 36.3397 -106.9547 294° West 397 457 38,000  Level Albuquerque Center
05:31PM 36.3828 -107.0761 294° West 399 459 38,000  Level Albuquerque Center
05:32PM 36.4044 -107.1283 297° West 402 463 38,000  Level Denver Center
05:33PM 36.4497 -107.2567 294° West 403 464 38,000  Level Denver Center
05:34PM 36.4997 -107.3989 294° West 403 464 38,000  Level Denver Center
05:35PM 36.5450 -107.5200 295° West 401 461 38,000  Level Denver Center
05:36PM 36.5953 -107.6639 294° West 408 470 38,000  Level Denver Center
05:37PM 36.6386 -107.7856 294° West 404 465 38,000  Level Denver Center
05:38PM 36.6892 -107.9297 294° West 406 467 38,000  Level Denver Center
05:39PM 36.7325 -108.0514 294° West 405 466 38,000  Level Denver Center
05:40PM 36.7750 -108.1731 294° West 403 464 38,000  Level Denver Center
05:41PM 36.8261 -108.3150 294° West 402 463 38,000  Level Denver Center
05:42PM 36.8689 -108.4381 294° West 403 464 38,000  Level Denver Center
05:43PM 36.9183 -108.5789 294° West 399 459 38,000  Level Denver Center
05:44PM 36.9614 -108.7000 294° West 400 460 38,000  Level Denver Center
05:45PM 37.0111 -108.8453 293° West 407 468 38,000  Level Denver Center
05:47PM 37.1039 -109.1133 294° West 405 466 38,000  Level Denver Center
05:48PM 37.1469 -109.2358 294° West 404 465 38,000  Level Denver Center
05:49PM 37.1958 -109.3808 293° West 404 465 38,000  Level Denver Center
05:50PM 37.2383 -109.5053 293° West 407 468 38,000  Level Denver Center
05:51PM 37.2883 -109.6525 293° West 409 471 38,000  Level Denver Center
05:52PM 37.3311 -109.7789 293° West 410 472 38,000  Level Denver Center
05:53PM 37.3803 -109.9281 293° West 415 478 38,000  Level Denver Center
05:54PM 37.4239 -110.0547 293° West 414 476 38,000  Level Denver Center
05:57PM 37.5144 -110.3333 292° West 415 478 38,000  Level Denver Center
05:58PM 37.5586 -110.4625 293° West 419 482 38,000  Level Denver Center
05:59PM 37.6067 -110.6089 293° West 418 481 38,000  Level Denver Center
06:00PM 37.6506 -110.7436 292° West 419 482 38,000  Level Denver Center
06:01PM 37.6856 -110.8522 292° West 419 482 38,000  Level Denver Center
06:02PM 37.7386 -111.0147 292° West 419 482 38,000  Level Denver Center
06:03PM 37.7822 -111.1503 292° West 418 481 38,000  Level Denver Center
06:03PM 37.8000 -111.2056 292° West 420 483 38,000  Level Salt Lake Center
06:04PM 37.8439 -111.3419 292° West 420 483 38,000  Level Salt Lake Center
06:05PM 37.8883 -111.4789 292° West 423 487 38,000  Level Salt Lake Center
06:06PM 37.9317 -111.6158 292° West 422 486 38,000  Level Salt Lake Center
06:07PM 37.9836 -111.7803 292° West 421 484 38,000  Level Salt Lake Center
06:08PM 38.0267 -111.9175 292° West 420 483 38,000  Level Salt Lake Center
06:09PM 38.0692 -112.0536 292° West 419 482 38,000  Level Salt Lake Center
06:10PM 38.1114 -112.1900 292° West 418 481 38,000  Level Salt Lake Center
06:11PM 38.1536 -112.3264 292° West 418 481 38,000  Level Salt Lake Center
06:12PM 38.1956 -112.4614 292° West 416 479 38,000  Level Salt Lake Center
06:13PM 38.2453 -112.6258 291° West 418 481 38,000  Level Salt Lake Center
06:14PM 38.2867 -112.7614 291° West 416 479 38,000  Level Salt Lake Center
06:15PM 38.3283 -112.8978 291° West 416 479 38,000  Level Salt Lake Center
06:16PM 38.3706 -113.0328 292° West 416 479 38,000  Level Salt Lake Center
06:17PM 38.4142 -113.1678 292° West 415 478 38,000  Level Salt Lake Center
06:18PM 38.4581 -113.3056 292° West 419 482 38,000  Level Salt Lake Center
06:19PM 38.4744 -113.4486 278° West 422 486 38,000  Level Salt Lake Center
06:20PM 38.4586 -113.6189 263° West 407 468 38,000  Level Salt Lake Center
06:22PM 38.4467 -113.7611 264° West 408 470 38,000  Level Salt Lake Center
06:23PM 38.4328 -113.9044 263° West 409 471 38,000  Level Salt Lake Center
06:24PM 38.4189 -114.0503 263° West 415 478 38,000  Level Salt Lake Center
06:25PM 38.4050 -114.1947 263° West 414 476 38,000  Level Salt Lake Center
06:26PM 38.3911 -114.3400 263° West 415 478 38,000  Level Salt Lake Center
06:27PM 38.3761 -114.4850 263° West 414 476 38,000  Level Salt Lake Center
06:28PM 38.3581 -114.6600 263° West 417 480 38,000  Level Salt Lake Center
06:29PM 38.3442 -114.8047 263° West 414 476 38,000  Level Salt Lake Center
06:30PM 38.3289 -114.9511 262° West 418 481 38,000  Level Salt Lake Center
06:31PM 38.3142 -115.0953 263° West 414 476 38,000  Level Salt Lake Center
06:32PM 38.2992 -115.2411 263° West 418 481 38,000  Level Salt Lake Center
06:33PM 38.2814 -115.3989 262° West 415 478 38,000  Level Salt Lake Center
06:34PM 38.2658 -115.5458 262° West 418 481 38,000  Level Salt Lake Center
06:35PM 38.2500 -115.6917 262° West 416 479 38,000  Level Salt Lake Center
06:36PM 38.2333 -115.8375 262° West 418 481 38,000  Level Salt Lake Center
06:37PM 38.2178 -115.9844 262° West 419 482 38,000  Level Salt Lake Center
06:38PM 38.2017 -116.1297 262° West 417 480 38,000  Level Salt Lake Center
06:39PM 38.1842 -116.2769 261° West 421 484 38,000  Level Salt Lake Center
06:40PM 38.1708 -116.3933 262° West 419 482 38,000  Level Oakland Center
06:41PM 38.1539 -116.5386 262° West 417 480 38,000  Level Oakland Center
06:42PM 38.1364 -116.6864 261° West 421 484 38,000  Level Oakland Center
06:43PM 38.1189 -116.8339 261° West 421 484 38,000  Level Oakland Center
06:44PM 38.1031 -116.9817 262° West 422 486 38,000  Level Oakland Center
06:45PM 38.0875 -117.1300 262° West 418 481 38,000  Level Oakland Center
06:47PM 38.0556 -117.4367 263° West 424 488 38,000  Level Oakland Center
06:48PM 38.0406 -117.5844 263° West 422 486 38,000  Level Oakland Center
06:49PM 38.0239 -117.7328 262° West 424 488 38,000  Level Oakland Center
06:50PM 38.0078 -117.8817 262° West 426 490 38,000  Level Oakland Center
06:51PM 37.9917 -118.0292 262° West 422 486 38,000  Level Oakland Center
06:52PM 37.9753 -118.1778 262° West 426 490 38,000  Level Oakland Center
06:53PM 37.9581 -118.3250 262° West 425 489 38,000 -300 Level Oakland Center
06:54PM 37.9414 -118.4717 262° West 421 484 37,500 -840 Descending Oakland Center
06:55PM 37.9214 -118.6417 262° West 408 470 36,300 -780 Descending Oakland Center
06:56PM 37.9053 -118.7800 262° West 399 459 36,000 -180 Descending Oakland Center
06:57PM 37.8883 -118.9206 261° West 403 464 36,000  Level Oakland Center
06:58PM 37.8711 -119.0658 262° West 416 479 36,000 -180 Level Oakland Center
06:59PM 37.8547 -119.1961 261° West 421 484 35,700 -840 Descending Oakland Center
07:00PM 37.8339 -119.3711 261° West 420 483 34,300 -840 Descending Oakland Center
07:01PM 37.8153 -119.5139 261° West 414 476 34,000 -180 Descending Oakland Center
07:02PM 37.7978 -119.6564 261° West 409 471 34,000  Level Oakland Center
07:03PM 37.7811 -119.7994 262° West 410 472 34,000 -900 Level Oakland Center
07:04PM 37.7631 -119.9458 261° West 416 479 32,200 -1,920 Descending Oakland Center
07:05PM 37.7428 -120.0936 260° West 420 483 30,100 -2,100 Descending Oakland Center
07:06PM 37.7233 -120.2394 260° West 421 484 28,000 -2,100 Descending Oakland Center
07:07PM 37.7047 -120.3800 261° West 411 473 25,900 -2,100 Descending Oakland Center
07:08PM 37.6861 -120.5203 261° West 405 466 23,800 -2,100 Descending Oakland Center
07:09PM 37.6672 -120.6597 260° West 404 465 21,700 -1,980 Descending Oakland Center
07:10PM 37.6494 -120.7911 260° West 391 450 19,800 -1,980 Descending Oakland Center
07:11PM 37.6325 -120.9161 260° West 367 422 17,700 -2,160 Descending Oakland Center
07:12PM 37.6153 -121.0606 261° West 349 402 15,400 -1,860 Descending Oakland Center
07:13PM 37.6025 -121.1758 262° West 346 398 14,000 -1,380 Descending Oakland Center
07:14PM 37.6000 -121.3000 269° West 348 400 12,700 -1,380 Descending Northern Cal TRACON
07:15PM 37.6500 -121.4000 302° West 333 383 11,300 -1,380 Descending Northern Cal TRACON
07:16PM 37.7000 -121.4833 307° West 325 374 10,000 -960 Descending Northern Cal TRACON
07:17PM 37.7333 -121.5833 293° West 307 353 9,400 -540 Descending Northern Cal TRACON
07:18PM 37.7667 -121.6833 293° West 271 312 9,000 -240 Descending Northern Cal TRACON
07:19PM 37.8000 -121.7667 297° West 279 321 9,000 -180 Level Northern Cal TRACON
07:20PM 37.8225 -121.8750 285° West 279 321 8,700 -780 Descending Oakland Center
07:21PM 37.8483 -121.9719 289° West 289 333 7,400 -840 Descending Oakland Center
07:22PM 37.8728 -122.0664 288° West 287 330 7,000 -480 Descending Oakland Center
07:23PM 37.8525 -122.1439 252° West 262 302 6,500 -540 Descending Oakland Center
07:24PM 37.8044 -122.1917 218° Southwest 224 258 6,000 -1,020 Descending Oakland Center
07:26PM 37.7661 -122.2306 219° Southwest 185 213 4,500 -1,620 Descending Oakland Center
07:27PM 37.7267 -122.2675 217° Southwest 178 205 2,800 -1,680 Descending Oakland Center